Time;durP1;ratioP1;P1;durP2;ratioP2;P2;SDS_P1;SDS_P2;PMS_P1;PMS_P2;Temp;Humidity;BMP_temperature;BMP_pressure;BME280_temperature;BME280_humidity;BME280_pressure;Samples;Min_cycle;Max_cycle;Signal;HPM_P1;HPM_P2
2022/10/04 00:00:28;;;;;;;;;;;;;;;19.92;61.67;101428.01;2242064;79;51525;-77
2022/10/04 00:03:34;;;;;;;;;;;;;;;19.92;61.67;101436.58;2241883;79;52389;-77
2022/10/04 00:06:36;;;;;;;;;;;;;;;19.92;61.66;101441.95;2219206;79;51184;-77
2022/10/04 00:09:42;;;;;;;;;;;;;;;19.92;61.66;101439.27;2242180;79;51547;-77
2022/10/04 00:12:50;;;;;;;;;;;;;;;19.92;61.67;101447.33;2242213;79;51673;-77
2022/10/04 00:15:52;;;;;;;;;;;;;;;19.91;61.71;101449.66;2241774;79;51516;-77
2022/10/04 00:18:55;;;;;;;;;;;;;;;19.91;61.68;101445.62;2208224;79;51080;-77
2022/10/04 00:21:59;;;;;;;;;;;;;;;19.91;61.71;101446.97;2185721;79;51606;-77
2022/10/04 00:25:01;;;;;;;;;;;;;;;19.90;61.71;101443.45;2205722;79;50540;-77
2022/10/04 00:28:17;;;;;;;;;;;;;;;19.90;61.78;101450.16;2207796;80;52695;-77
2022/10/04 00:31:19;;;;;;;;;;;;;;;19.86;61.96;101450.20;2185209;80;52742;-76
2022/10/04 00:34:22;;;;;;;;;;;;;;;19.82;61.96;101449.36;2207337;80;50472;-76
2022/10/04 00:37:24;;;;;;;;;;;;;;;19.81;62.18;101444.50;2207401;79;50767;-77
2022/10/04 00:40:27;;;;;;;;;;;;;;;19.84;62.04;101448.69;2207813;79;50548;-76
2022/10/04 00:43:30;;;;;;;;;;;;;;;19.86;61.93;101441.27;2205642;80;50540;-77
2022/10/04 00:46:32;;;;;;;;;;;;;;;19.83;62.00;101443.80;2207247;79;51638;-77
2022/10/04 00:49:38;;;;;;;;;;;;;;;19.86;61.93;101445.30;2237765;79;51467;-77
2022/10/04 00:52:40;;;;;;;;;;;;;;;19.83;61.99;101441.11;2243565;79;22346;-76
2022/10/04 00:55:43;;;;;;;;;;;;;;;19.84;61.93;101439.30;2232340;78;51045;-77
2022/10/04 00:58:46;;;;;;;;;;;;;;;19.84;61.95;101441.98;2243900;78;50732;-77
2022/10/04 01:01:49;;;;;;;;;;;;;;;19.88;61.87;101440.61;2242873;78;50827;-77
2022/10/04 01:04:55;;;;;;;;;;;;;;;19.86;61.80;101439.45;2244388;79;50420;-78
2022/10/04 01:08:07;;;;;;;;;;;;;;;19.85;61.87;101439.10;2232845;79;51065;-77
2022/10/04 01:11:10;;;;;;;;;;;;;;;19.85;61.80;101435.07;2244488;78;50380;-77
2022/10/04 01:14:23;;;;;;;;;;;;;;;19.86;61.76;101446.64;2243186;78;50557;-77
2022/10/04 01:17:24;;;;;;;;;;;;;;;19.84;61.77;101437.44;2241301;78;50857;-77
2022/10/04 01:20:27;;;;;;;;;;;;;;;19.83;61.76;101438.43;2217865;79;51029;-77
2022/10/04 01:23:36;;;;;;;;;;;;;;;19.85;61.68;101439.10;2241074;79;51552;-77
2022/10/04 01:26:42;;;;;;;;;;;;;;;19.85;61.78;101440.45;2242340;79;50690;-76
2022/10/04 01:29:43;;;;;;;;;;;;;;;19.84;61.69;101431.23;2242358;79;50435;-77
2022/10/04 01:32:45;;;;;;;;;;;;;;;19.82;61.78;101431.91;2219081;79;51807;-76
2022/10/04 01:35:47;;;;;;;;;;;;;;;19.82;61.83;101431.91;2242054;79;51638;-77
2022/10/04 01:38:49;;;;;;;;;;;;;;;19.80;61.80;101434.23;2242653;79;50927;-78
2022/10/04 01:41:52;;;;;;;;;;;;;;;19.79;61.87;101435.27;2242726;79;50139;-77
2022/10/04 01:44:59;;;;;;;;;;;;;;;19.77;61.88;101430.56;2219548;79;51232;-77
2022/10/04 01:48:01;;;;;;;;;;;;;;;19.77;62.03;101429.22;2238594;79;51669;-77
2022/10/04 01:51:10;;;;;;;;;;;;;;;19.77;61.96;101422.50;2230520;79;50947;-77
2022/10/04 01:54:13;;;;;;;;;;;;;;;19.77;61.99;101422.50;2241765;79;51769;-77
2022/10/04 01:57:15;;;;;;;;;;;;;;;19.76;62.05;101424.04;2219664;79;51932;-77
2022/10/04 02:00:18;;;;;;;;;;;;;;;19.78;61.96;101428.23;2242318;79;51731;-77
2022/10/04 02:03:24;;;;;;;;;;;;;;;19.77;61.96;101430.56;2242177;79;50794;-77
2022/10/04 02:06:25;;;;;;;;;;;;;;;19.76;62.03;101426.22;2242069;78;51840;-77
2022/10/04 02:09:34;;;;;;;;;;;;;;;19.76;61.92;101416.81;2219633;79;52551;-77
2022/10/04 02:12:37;;;;;;;;;;;;;;;19.76;61.90;101419.50;2242895;79;50462;-77
2022/10/04 02:15:39;;;;;;;;;;;;;;;19.75;61.90;101411.09;2242019;79;51682;-77
2022/10/04 02:18:42;;;;;;;;;;;;;;;19.76;61.99;101408.76;2219439;79;50822;-77
2022/10/04 02:21:43;;;;;;;;;;;;;;;19.76;62.05;101417.33;2209688;80;49536;-77
2022/10/04 02:24:46;;;;;;;;;;;;;;;19.75;62.07;101415.12;2200131;81;50123;-77
2022/10/04 02:27:49;;;;;;;;;;;;;;;19.73;62.26;101411.80;2200318;79;51401;-76
2022/10/04 02:34:10;;;;;;;;;;;;;;;19.74;62.11;101421.52;2200125;81;23479;-77
2022/10/04 02:37:14;;;;;;;;;;;;;;;19.76;61.98;101418.16;2200452;79;52595;-76
2022/10/04 02:40:19;;;;;;;;;;;;;;;19.75;62.02;101415.63;2200666;79;50440;-76
2022/10/04 02:43:22;;;;;;;;;;;;;;;19.76;61.90;101416.81;2200431;81;51342;-76
2022/10/04 02:46:25;;;;;;;;;;;;;;;19.75;61.91;101413.78;2178591;81;49661;-77
2022/10/04 02:49:31;;;;;;;;;;;;;;;19.76;61.86;101414.13;2230315;78;50824;-77
2022/10/04 02:52:43;;;;;;;;;;;;;;;19.77;61.86;101408.25;2238694;79;50876;-77
2022/10/04 02:55:46;;;;;;;;;;;;;;;19.78;61.74;101406.75;2241999;79;50818;-77
2022/10/04 02:58:48;;;;;;;;;;;;;;;19.76;61.75;101406.59;2219027;79;51134;-77
2022/10/04 03:01:53;;;;;;;;;;;;;;;19.76;61.73;101403.39;2242250;79;51771;-77
2022/10/04 03:04:56;;;;;;;;;;;;;;;19.75;61.84;101402.20;2218841;79;50354;-76
2022/10/04 03:07:58;;;;;;;;;;;;;;;19.75;61.77;101403.55;2242584;79;51723;-77
2022/10/04 03:11:00;;;;;;;;;;;;;;;19.75;61.80;101394.98;2219506;79;49750;-77
2022/10/04 03:14:02;;;;;;;;;;;;;;;19.75;61.86;101404.89;2219049;79;50571;-77
2022/10/04 03:17:04;;;;;;;;;;;;;;;19.74;62.03;101410.77;2241945;79;50352;-76
2022/10/04 03:20:06;;;;;;;;;;;;;;;19.73;62.00;101406.42;2238038;79;51696;-76
2022/10/04 03:23:08;;;;;;;;;;;;;;;19.72;62.07;101404.73;2222930;77;50981;-77
2022/10/04 03:26:27;;;;;;;;;;;;;;;19.74;61.86;101408.09;2254955;77;50767;-76
2022/10/04 03:29:30;;;;;;;;;;;;;;;19.72;61.93;101410.61;2258801;77;50936;-77
2022/10/04 03:32:32;;;;;;;;;;;;;;;19.76;61.75;101410.61;2255288;79;50350;-78
2022/10/04 03:35:34;;;;;;;;;;;;;;;19.74;61.77;101408.59;2254682;77;50737;-77
2022/10/04 03:38:36;;;;;;;;;;;;;;;19.72;61.97;101411.44;2254952;78;50447;-76
2022/10/04 03:41:38;;;;;;;;;;;;;;;19.71;62.09;101421.86;2256150;79;50315;-76
2022/10/04 03:44:40;;;;;;;;;;;;;;;19.74;61.90;101412.11;2257693;77;51233;-76
2022/10/04 03:47:47;;;;;;;;;;;;;;;19.73;62.00;101416.30;2220924;79;50320;-77
2022/10/04 03:50:49;;;;;;;;;;;;;;;19.73;61.84;101411.80;2230568;79;50708;-77
2022/10/04 03:53:54;;;;;;;;;;;;;;;19.72;61.80;101412.78;2242360;79;51623;-77
2022/10/04 03:56:56;;;;;;;;;;;;;;;19.74;61.69;101412.11;2244850;79;51508;-76
2022/10/04 03:59:57;;;;;;;;;;;;;;;19.75;61.74;101409.75;2220502;79;50301;-77
2022/10/04 04:03:00;;;;;;;;;;;;;;;19.74;61.58;101411.28;2242509;79;50775;-76
2022/10/04 04:06:01;;;;;;;;;;;;;;;19.78;61.68;101411.25;2242939;79;50452;-77
2022/10/04 04:09:03;;;;;;;;;;;;;;;19.82;61.70;101413.11;2242955;79;51510;-77
2022/10/04 04:12:06;;;;;;;;;;;;;;;19.89;61.54;101417.61;2219812;79;51780;-77
2022/10/04 04:15:10;;;;;;;;;;;;;;;19.99;61.26;101419.59;2242852;79;50836;-77
2022/10/04 04:18:20;;;;;;;;;;;;;;;20.08;61.01;101421.73;2240089;79;51576;-76
2022/10/04 04:21:23;;;;;;;;;;;;;;;20.16;60.76;101427.06;2227874;79;50478;-77
2022/10/04 04:24:25;;;;;;;;;;;;;;;20.23;60.56;101425.88;2203656;80;51104;-77
2022/10/04 04:27:28;;;;;;;;;;;;;;;20.24;60.50;101426.19;2224276;80;50525;-77
2022/10/04 04:30:30;;;;;;;;;;;;;;;20.26;60.41;101425.52;2224483;79;51652;-77
2022/10/04 04:33:36;;;;;;;;;;;;;;;20.25;60.41;101425.72;2224872;79;51502;-77
2022/10/04 04:36:41;;;;;;;;;;;;;;;20.23;60.44;101422.67;2206347;79;50227;-76
2022/10/04 04:39:50;;;;;;;;;;;;;;;20.22;60.48;101425.55;2206197;80;50462;-76
2022/10/04 04:42:48;;;;;;;;;;;;;;;20.21;60.44;101417.98;2228216;80;22299;-76
2022/10/04 04:45:50;;;;;;;;;;;;;;;20.19;60.50;101424.53;2228684;80;51015;-76
2022/10/04 04:48:53;;;;;;;;;;;;;;;20.16;60.59;101417.66;2238608;78;50081;-76
2022/10/04 04:51:56;;;;;;;;;;;;;;;20.13;60.75;101425.25;2219033;79;51622;-76
2022/10/04 04:54:58;;;;;;;;;;;;;;;20.09;60.84;101427.94;2207262;79;51756;-77
2022/10/04 04:58:00;;;;;;;;;;;;;;;20.09;60.95;101422.09;2208139;79;50756;-77
2022/10/04 05:01:21;;;;;;;;;;;;;;;20.14;60.89;101422.40;2207433;80;50518;-73
2022/10/04 05:04:22;;;;;;;;;;;;;;;20.20;60.92;101432.95;2207127;79;51637;-75
2022/10/04 05:07:24;;;;;;;;;;;;;;;20.23;61.06;101429.39;2207735;80;51556;-75
2022/10/04 05:10:30;;;;;;;;;;;;;;;20.20;61.05;101427.06;2207680;80;51540;-75
2022/10/04 05:13:33;;;;;;;;;;;;;;;20.20;61.00;101432.44;2161370;80;49729;-76
2022/10/04 05:16:51;;;;;;;;;;;;;;;20.19;60.97;101433.46;2207672;80;51651;-78
2022/10/04 05:19:55;;;;;;;;;;;;;;;20.17;61.00;101423.39;2226575;78;51004;-78
2022/10/04 05:22:56;;;;;;;;;;;;;;;20.16;61.03;101427.58;2244270;79;51636;-78
2022/10/04 05:25:59;;;;;;;;;;;;;;;20.15;61.11;101430.78;2232297;78;50985;-78
2022/10/04 05:29:01;;;;;;;;;;;;;;;20.13;61.21;101435.48;2244130;79;50184;-78
2022/10/04 05:32:07;;;;;;;;;;;;;;;20.09;61.28;101435.52;2244065;79;51644;-78
2022/10/04 05:35:15;;;;;;;;;;;;;;;20.07;61.46;101434.02;2243696;78;50857;-78
2022/10/04 05:38:22;;;;;;;;;;;;;;;20.11;61.46;101431.30;2232330;78;49714;-78
2022/10/04 05:41:28;;;;;;;;;;;;;;;20.16;61.37;101429.75;2244011;78;50724;-77
2022/10/04 05:44:31;;;;;;;;;;;;;;;20.23;61.24;101433.94;2243724;78;50407;-76
2022/10/04 05:47:33;;;;;;;;;;;;;;;20.25;61.17;101432.43;2243592;78;51542;-78
2022/10/04 05:50:35;;;;;;;;;;;;;;;20.25;61.25;101435.95;2222958;79;51064;-78
2022/10/04 05:53:36;;;;;;;;;;;;;;;20.24;61.46;101439.63;2242189;79;50828;-78
2022/10/04 05:56:53;;;;;;;;;;;;;;;20.22;61.55;101437.65;2242388;79;51584;-77
2022/10/04 05:59:57;;;;;;;;;;;;;;;20.22;61.72;101445.71;2171172;82;23216;-77
2022/10/04 06:03:00;;;;;;;;;;;;;;;20.21;61.66;101445.36;2148090;82;51942;-77
2022/10/04 06:06:03;;;;;;;;;;;;;;;20.21;61.59;101452.91;2170140;80;50386;-77
2022/10/04 06:09:09;;;;;;;;;;;;;;;20.21;61.57;101455.59;2179598;81;50483;-77
2022/10/04 06:12:15;;;;;;;;;;;;;;;20.19;61.54;101461.67;2188786;81;51808;-77
2022/10/04 06:15:23;;;;;;;;;;;;;;;20.13;61.62;101454.29;2164980;81;50239;-76
2022/10/04 06:18:35;;;;;;;;;;;;;;;20.14;61.65;101448.41;2179535;81;50692;-76
2022/10/04 06:21:41;;;;;;;;;;;;;;;20.19;61.59;101450.06;2168861;81;51616;-76
2022/10/04 06:24:53;;;;;;;;;;;;;;;20.28;61.39;101448.20;2170058;81;50475;-76
2022/10/04 06:27:56;;;;;;;;;;;;;;;20.37;61.43;101460.09;2147574;82;51071;-76
2022/10/04 06:31:08;;;;;;;;;;;;;;;20.43;61.14;101455.86;2169260;82;50739;-77
2022/10/04 06:34:11;;;;;;;;;;;;;;;20.46;61.03;101458.19;2170679;81;51656;-77
2022/10/04 06:37:17;;;;;;;;;;;;;;;20.44;60.85;101472.30;2218507;79;51004;-77
2022/10/04 06:40:27;;;;;;;;;;;;;;;20.38;60.87;101465.78;2218899;79;51042;-76
2022/10/04 06:43:42;;;;;;;;;;;;;;;20.33;60.94;101460.09;2231724;79;51697;-77
2022/10/04 06:46:47;;;;;;;;;;;;;;;20.32;61.03;101460.25;2242012;79;52658;-76
2022/10/04 06:49:54;;;;;;;;;;;;;;;20.30;61.03;101468.52;2242440;79;51513;-76
2022/10/04 06:53:15;;;;;;;;;;;;;;;20.26;61.00;101477.09;2218617;79;51073;-76
2022/10/04 06:56:21;;;;;;;;;;;;;;;20.20;61.12;101484.00;2241724;78;51582;-78
2022/10/04 06:59:30;;;;;;;;;;;;;;;20.20;61.16;101482.16;2237617;79;51620;-77
2022/10/04 07:02:33;;;;;;;;;;;;;;;20.23;61.07;101487.17;2227916;79;51517;-78
2022/10/04 07:05:37;;;;;;;;;;;;;;;20.30;60.92;101487.84;2205195;79;52549;-78
2022/10/04 07:08:46;;;;;;;;;;;;;;;20.31;60.82;101484.13;2227609;79;51597;-77
2022/10/04 07:11:52;;;;;;;;;;;;;;;20.31;60.77;101480.09;2226443;79;50133;-76
2022/10/04 07:14:55;;;;;;;;;;;;;;;20.29;60.75;101484.80;2225575;79;51549;-77
2022/10/04 07:17:57;;;;;;;;;;;;;;;20.29;60.73;101486.14;2207241;80;49619;-76
2022/10/04 07:21:00;;;;;;;;;;;;;;;20.27;60.74;101489.02;2237259;79;51567;-76
2022/10/04 07:24:02;;;;;;;;;;;;;;;20.25;60.75;101495.58;2243767;78;51588;-78
2022/10/04 07:27:04;;;;;;;;;;;;;;;20.22;60.77;101497.59;2243830;79;51447;-77
2022/10/04 07:30:06;;;;;;;;;;;;;;;20.21;60.79;101499.10;2232033;79;51042;-76
2022/10/04 07:33:08;;;;;;;;;;;;;;;20.18;60.82;101498.95;2243755;78;50367;-76
2022/10/04 07:36:11;;;;;;;;;;;;;;;20.14;60.92;101494.95;2243571;79;50571;-77
2022/10/04 07:39:16;;;;;;;;;;;;;;;20.14;60.95;101503.00;2231521;79;49686;-76
2022/10/04 07:42:36;;;;;;;;;;;;;;;20.19;60.84;101511.39;2232317;79;49661;-77
2022/10/04 07:45:38;;;;;;;;;;;;;;;20.28;60.65;101516.73;2243537;79;50747;-76
2022/10/04 07:48:40;;;;;;;;;;;;;;;20.33;60.46;101517.88;2243910;78;50704;-77
2022/10/04 07:52:00;;;;;;;;;;;;;;;20.36;60.35;101519.39;2232415;79;50333;-76
2022/10/04 07:55:09;;;;;;;;;;;;;;;20.38;60.38;101520.05;2203540;80;52829;-75
2022/10/04 07:58:21;;;;;;;;;;;;;;;20.37;60.40;101519.70;2223641;80;50471;-76
2022/10/04 08:01:37;;;;;;;;;;;;;;;20.36;60.37;101527.45;2224009;80;50413;-76
2022/10/04 08:05:00;;;;;;;;;;;;;;;20.37;60.36;101530.45;2223791;80;51505;-76
2022/10/04 08:08:06;;;;;;;;;;;;;;;20.39;60.26;101530.62;2224087;80;51679;-76
2022/10/04 08:11:16;;;;;;;;;;;;;;;20.38;60.17;101525.44;2223933;80;50711;-78
2022/10/04 08:14:19;;;;;;;;;;;;;;;20.38;60.15;101536.19;2230847;79;50538;-78
2022/10/04 08:17:34;;;;;;;;;;;;;;;20.41;60.10;101542.55;2242105;78;50824;-78
2022/10/04 08:20:37;;;;;;;;;;;;;;;20.34;60.24;101549.63;2222512;79;50660;-78
2022/10/04 08:23:46;;;;;;;;;;;;;;;20.39;60.17;101548.60;2185834;80;51429;-77
2022/10/04 08:27:06;;;;;;;;;;;;;;;20.44;60.06;101544.38;2242736;78;51795;-78
2022/10/04 08:30:12;;;;;;;;;;;;;;;20.51;59.96;101547.73;2244045;79;50892;-78
2022/10/04 08:33:15;;;;;;;;;;;;;;;20.58;59.85;101549.58;2232253;79;50758;-78
2022/10/04 08:36:31;;;;;;;;;;;;;;;20.57;59.79;101547.89;2231665;78;49674;-78
2022/10/04 08:39:37;;;;;;;;;;;;;;;20.57;59.79;101549.23;2243876;78;50824;-77
2022/10/04 08:42:52;;;;;;;;;;;;;;;20.56;59.73;101551.60;2243702;78;51714;-78
2022/10/04 08:46:12;;;;;;;;;;;;;;;20.52;59.81;101554.27;2243374;78;51625;-77
2022/10/04 08:49:31;;;;;;;;;;;;;;;20.50;59.85;101554.97;2216162;79;49694;-78
2022/10/04 08:52:47;;;;;;;;;;;;;;;20.44;59.97;101552.44;2212532;79;50466;-77
2022/10/04 08:55:50;;;;;;;;;;;;;;;20.44;59.95;101554.30;2207389;79;51623;-78
2022/10/04 08:59:08;;;;;;;;;;;;;;;20.43;59.96;101549.95;2207813;80;50759;-78
2022/10/04 09:02:15;;;;;;;;;;;;;;;20.42;59.97;101548.25;2207935;80;50842;-79
2022/10/04 09:05:31;;;;;;;;;;;;;;;20.42;60.04;101553.14;2207467;80;51588;-77
2022/10/04 09:08:51;;;;;;;;;;;;;;;20.49;59.95;101548.41;2244153;79;51583;-78
2022/10/04 09:12:03;;;;;;;;;;;;;;;20.56;59.76;101541.36;2254552;79;50477;-78
2022/10/04 09:15:06;;;;;;;;;;;;;;;20.61;59.61;101547.88;2251337;79;50824;-78
2022/10/04 09:18:16;;;;;;;;;;;;;;;20.61;59.57;101545.20;2242498;78;50366;-78
2022/10/04 09:21:29;;;;;;;;;;;;;;;20.62;59.55;101556.27;2244256;77;51461;-78
2022/10/04 09:24:36;;;;;;;;;;;;;;;20.58;59.66;101550.93;2207818;80;50858;-79
2022/10/04 09:27:40;;;;;;;;;;;;;;;20.55;59.37;101546.38;2232169;79;50206;-79
2022/10/04 09:30:46;;;;;;;;;;;;;;;20.53;59.47;101549.75;2244031;77;51584;-79
2022/10/04 09:34:08;;;;;;;;;;;;;;;20.54;59.48;101555.44;2243731;79;50818;-79
2022/10/04 09:37:28;;;;;;;;;;;;;;;20.52;59.51;101551.58;2243993;77;50749;-78
2022/10/04 09:40:44;;;;;;;;;;;;;;;20.48;59.57;101554.30;2282876;77;50184;-78
2022/10/04 09:43:59;;;;;;;;;;;;;;;20.49;59.57;101555.13;2220657;79;51626;-79
2022/10/04 09:47:05;;;;;;;;;;;;;;;20.45;59.65;101549.27;2243631;78;51514;-78
2022/10/04 09:50:25;;;;;;;;;;;;;;;20.54;59.51;101551.41;2230700;79;50515;-78
2022/10/04 09:53:47;;;;;;;;;;;;;;;20.60;59.35;101546.22;2218510;79;51488;-78
2022/10/04 09:57:00;;;;;;;;;;;;;;;20.63;59.32;101550.41;2242318;79;51594;-78
2022/10/04 10:00:13;;;;;;;;;;;;;;;20.66;59.21;101545.51;2243388;78;50836;-78
2022/10/04 10:03:16;;;;;;;;;;;;;;;20.63;59.24;101547.20;2243423;79;50355;-79
2022/10/04 10:06:19;;;;;;;;;;;;;;;20.59;59.35;101542.34;2231228;78;49624;-79
2022/10/04 10:16:43;;;;;;;;;;;;;;;20.56;59.38;101540.84;2244170;78;24328;-78
2022/10/04 10:20:04;;;;;;;;;;;;;;;20.50;59.57;101540.18;2135230;82;49705;-78
2022/10/04 10:23:07;;;;;;;;;;;;;;;20.48;59.62;101538.16;2207681;80;51675;-78
2022/10/04 10:26:13;;;;;;;;;;;;;;;20.47;59.70;101539.67;2207316;79;51419;-77
2022/10/04 10:29:17;;;;;;;;;;;;;;;20.47;59.71;101541.84;2207479;80;51730;-78
2022/10/04 10:32:29;;;;;;;;;;;;;;;20.55;59.57;101545.05;2206447;79;52600;-78
2022/10/04 10:35:44;;;;;;;;;;;;;;;20.60;59.37;101543.53;2253445;79;51552;-78
2022/10/04 10:39:06;;;;;;;;;;;;;;;20.69;59.24;101544.83;2233173;77;50887;-77
2022/10/04 10:42:26;;;;;;;;;;;;;;;20.65;59.38;101549.22;2243356;78;50486;-78
2022/10/04 10:45:36;;;;;;;;;;;;;;;20.63;59.47;101549.90;2231934;78;50177;-78
2022/10/04 10:48:40;;;;;;;;;;;;;;;20.58;59.63;101544.20;2243317;79;51723;-78
2022/10/04 10:52:00;;;;;;;;;;;;;;;20.51;59.83;101542.36;2228596;79;51804;-77
2022/10/04 10:55:19;;;;;;;;;;;;;;;20.44;60.03;101544.89;2243308;79;50280;-78
2022/10/04 10:58:22;;;;;;;;;;;;;;;20.41;60.16;101535.83;2231686;79;49527;-78
2022/10/04 11:01:28;;;;;;;;;;;;;;;20.34;60.35;101537.02;2243794;79;50681;-78
2022/10/04 11:04:53;;;;;;;;;;;;;;;20.33;60.40;101546.61;2243469;79;50577;-78
2022/10/04 11:07:54;;;;;;;;;;;;;;;20.34;60.45;101545.59;2243744;78;21884;-77
2022/10/04 11:11:12;;;;;;;;;;;;;;;20.31;60.54;101541.41;2231839;79;50172;-78
2022/10/04 11:14:22;;;;;;;;;;;;;;;20.41;60.30;101543.90;2243238;78;50497;-78
2022/10/04 11:17:45;;;;;;;;;;;;;;;20.40;60.28;101540.89;2243783;79;51543;-78
2022/10/04 11:20:58;;;;;;;;;;;;;;;20.42;60.22;101533.47;2238164;79;51655;-77
2022/10/04 11:24:04;;;;;;;;;;;;;;;20.43;60.21;101545.40;2225286;79;49616;-76
2022/10/04 11:27:07;;;;;;;;;;;;;;;20.43;60.28;101551.28;2243257;78;50482;-77
2022/10/04 11:30:27;;;;;;;;;;;;;;;20.45;60.24;101549.27;2236102;79;50475;-77
2022/10/04 11:33:33;;;;;;;;;;;;;;;20.41;60.30;101542.55;2205546;80;22442;-77
2022/10/04 11:36:48;;;;;;;;;;;;;;;20.40;60.34;101531.48;2185049;80;51889;-77
2022/10/04 11:40:10;;;;;;;;;;;;;;;20.38;60.34;101527.61;2206973;80;51521;-77
2022/10/04 11:43:23;;;;;;;;;;;;;;;20.42;60.30;101526.74;2207817;79;50342;-77
2022/10/04 11:46:44;;;;;;;;;;;;;;;20.37;60.35;101525.95;2227172;78;50104;-77
2022/10/04 11:50:02;;;;;;;;;;;;;;;20.34;60.51;101525.44;2238702;79;23586;-77
2022/10/04 11:53:06;;;;;;;;;;;;;;;20.42;60.37;101528.09;2241754;79;51563;-77
2022/10/04 11:56:18;;;;;;;;;;;;;;;20.43;60.25;101521.20;2241567;79;51630;-77
2022/10/04 11:59:21;;;;;;;;;;;;;;;20.42;60.27;101515.99;2241766;79;52814;-77
2022/10/04 12:02:41;;;;;;;;;;;;;;;20.42;60.27;101511.95;2217647;79;51339;-78
2022/10/04 12:06:00;;;;;;;;;;;;;;;20.37;60.40;101512.98;2241565;78;50842;-77
2022/10/04 12:09:06;;;;;;;;;;;;;;;20.36;60.41;101515.36;2241726;79;51593;-77
2022/10/04 12:12:38;;;;;;;;;;;;;;;20.31;60.56;101513.69;2241893;79;50421;-77
2022/10/04 12:15:40;;;;;;;;;;;;;;;20.32;60.54;101510.84;2218664;79;50168;-78
2022/10/04 12:18:44;;;;;;;;;;;;;;;20.35;60.39;101505.63;2242519;79;50413;-77
2022/10/04 12:22:04;;;;;;;;;;;;;;;20.33;60.34;101507.13;2235951;78;55103;-78
2022/10/04 12:25:13;;;;;;;;;;;;;;;20.35;60.25;101506.97;2241735;79;50462;-78
2022/10/04 12:28:33;;;;;;;;;;;;;;;20.37;60.24;101502.23;2217094;79;51450;-77
2022/10/04 12:31:36;;;;;;;;;;;;;;;20.51;59.90;101497.48;2227444;79;50656;-79
2022/10/04 12:34:45;;;;;;;;;;;;;;;20.61;59.61;101491.41;2227297;80;50795;-77
2022/10/04 12:38:07;;;;;;;;;;;;;;;20.59;59.56;101496.12;2225449;79;50572;-78
2022/10/04 12:41:16;;;;;;;;;;;;;;;20.59;59.58;101495.30;2207184;80;49878;-78
2022/10/04 12:44:19;;;;;;;;;;;;;;;20.61;59.48;101503.52;2227474;80;51570;-77
2022/10/04 12:47:26;;;;;;;;;;;;;;;20.57;59.56;101506.72;2227391;79;50848;-78
2022/10/04 12:50:29;;;;;;;;;;;;;;;20.58;59.48;101503.88;2235547;79;50197;-77
2022/10/04 12:53:39;;;;;;;;;;;;;;;20.56;59.51;101505.89;2199703;79;53033;-77
2022/10/04 12:56:45;;;;;;;;;;;;;;;20.54;59.53;101497.16;2241789;78;51639;-78
2022/10/04 12:59:51;;;;;;;;;;;;;;;20.52;59.55;101497.80;2241909;79;50724;-79
2022/10/04 13:02:54;;;;;;;;;;;;;;;20.53;59.50;101499.49;2241228;79;52276;-77
2022/10/04 13:06:01;;;;;;;;;;;;;;;20.46;59.67;101487.76;2218076;78;52576;-78
2022/10/04 13:09:10;;;;;;;;;;;;;;;20.49;59.70;101494.64;2241927;79;51666;-79
2022/10/04 13:12:30;;;;;;;;;;;;;;;20.55;59.55;101492.61;2241985;79;50542;-77
2022/10/04 13:15:39;;;;;;;;;;;;;;;20.60;59.40;101492.92;2241277;79;50213;-78
2022/10/04 13:18:45;;;;;;;;;;;;;;;20.65;59.18;101491.41;2219694;79;51009;-78
2022/10/04 13:21:51;;;;;;;;;;;;;;;20.65;59.20;101473.06;2221895;79;52578;-79
2022/10/04 13:24:58;;;;;;;;;;;;;;;20.62;59.22;101468.88;2229173;78;51546;-78
2022/10/04 13:28:01;;;;;;;;;;;;;;;20.62;59.17;101468.88;2243544;79;51505;-79
2022/10/04 13:31:23;;;;;;;;;;;;;;;20.58;59.27;101459.50;2208105;78;51067;-78
2022/10/04 13:34:31;;;;;;;;;;;;;;;20.55;59.33;101454.48;2243698;78;22372;-79
2022/10/04 13:37:37;;;;;;;;;;;;;;;20.52;59.40;101460.67;2214952;78;51663;-79
2022/10/04 13:40:46;;;;;;;;;;;;;;;20.53;59.37;101453.79;2243384;78;52372;-78
2022/10/04 13:43:53;;;;;;;;;;;;;;;20.46;59.50;101455.50;2210024;79;49777;-78
2022/10/04 13:46:59;;;;;;;;;;;;;;;20.45;59.58;101445.26;2243631;79;50790;-77
2022/10/04 13:50:03;;;;;;;;;;;;;;;20.52;59.43;101445.38;2236809;79;51551;-77
2022/10/04 13:56:36;;;;;;;;;;;;;;;20.63;59.14;101442.34;2243937;79;22425;-77
2022/10/04 13:59:39;;;;;;;;;;;;;;;20.64;59.09;101434.59;2243485;79;50672;-77
2022/10/04 14:02:57;;;;;;;;;;;;;;;20.63;59.10;101431.58;2243459;78;51641;-77
2022/10/04 14:06:07;;;;;;;;;;;;;;;20.60;59.16;101426.56;2243209;79;50442;-78
2022/10/04 14:09:19;;;;;;;;;;;;;;;20.59;59.19;101427.56;2231104;79;49698;-77
2022/10/04 14:12:39;;;;;;;;;;;;;;;20.59;59.17;101422.70;2243532;78;50560;-78
2022/10/04 14:16:00;;;;;;;;;;;;;;;20.63;59.05;101411.92;2243433;79;51651;-77
2022/10/04 14:19:21;;;;;;;;;;;;;;;20.60;59.08;101414.46;2238339;79;51631;-79
2022/10/04 14:22:37;;;;;;;;;;;;;;;20.56;59.20;101414.98;2212655;79;49684;-78
2022/10/04 14:25:43;;;;;;;;;;;;;;;20.57;59.28;101416.14;2241167;78;51734;-77
2022/10/04 14:28:49;;;;;;;;;;;;;;;20.63;59.25;101411.41;2241504;79;50315;-77
2022/10/04 14:31:55;;;;;;;;;;;;;;;20.62;59.36;101410.23;2241748;79;50851;-78
2022/10/04 14:35:10;;;;;;;;;;;;;;;20.59;59.44;101402.53;2241687;79;51437;-78
2022/10/04 14:38:19;;;;;;;;;;;;;;;20.59;59.50;101399.33;2241668;79;51556;-78
2022/10/04 14:41:28;;;;;;;;;;;;;;;20.57;59.55;101405.38;2241924;79;22768;-77
2022/10/04 14:44:32;;;;;;;;;;;;;;;20.57;59.55;101405.89;2241134;79;50529;-77
2022/10/04 14:47:52;;;;;;;;;;;;;;;20.55;59.61;101402.06;2218724;79;50160;-78
2022/10/04 14:51:05;;;;;;;;;;;;;;;20.53;59.60;101399.19;2235942;79;51753;-78
2022/10/04 14:54:14;;;;;;;;;;;;;;;20.53;59.66;101394.64;2241651;79;50300;-78
2022/10/04 14:57:33;;;;;;;;;;;;;;;20.49;59.74;101387.93;2241837;78;50964;-77
2022/10/04 15:00:55;;;;;;;;;;;;;;;20.45;59.82;101389.32;2218538;79;49708;-76
2022/10/04 15:04:15;;;;;;;;;;;;;;;20.42;59.93;101392.34;2241533;79;50336;-78
2022/10/04 15:07:24;;;;;;;;;;;;;;;20.47;59.81;101384.58;2241732;78;51577;-77
2022/10/04 15:10:30;;;;;;;;;;;;;;;20.55;59.60;101388.62;2219010;79;50792;-77
2022/10/04 15:13:33;;;;;;;;;;;;;;;20.60;59.42;101379.51;2218396;79;51076;-77
2022/10/04 15:16:43;;;;;;;;;;;;;;;20.59;59.39;101372.95;2241859;79;50546;-78
2022/10/04 15:19:49;;;;;;;;;;;;;;;20.57;59.42;101365.56;2237803;79;50493;-78
2022/10/04 15:22:54;;;;;;;;;;;;;;;20.59;59.33;101377.81;2240431;79;50749;-81
2022/10/04 15:26:00;;;;;;;;;;;;;;;20.54;59.40;101364.07;2218595;78;51101;-78
2022/10/04 15:29:22;;;;;;;;;;;;;;;20.56;59.36;101366.59;2241866;79;51617;-78
2022/10/04 15:32:28;;;;;;;;;;;;;;;20.52;59.42;101371.44;2241644;79;51563;-77
2022/10/04 15:35:31;;;;;;;;;;;;;;;20.49;59.47;101369.11;2241223;79;51636;-77
2022/10/04 15:38:34;;;;;;;;;;;;;;;20.47;59.51;101374.34;2218303;79;52589;-77
2022/10/04 15:41:38;;;;;;;;;;;;;;;20.43;59.60;101381.94;2240899;79;51619;-77
2022/10/04 15:44:58;;;;;;;;;;;;;;;20.39;59.69;101377.40;2243005;79;51618;-77
2022/10/04 15:48:04;;;;;;;;;;;;;;;20.47;59.58;101383.23;2241927;79;50447;-77
2022/10/04 15:51:11;;;;;;;;;;;;;;;20.56;59.30;101383.55;2215296;80;50022;-77
2022/10/04 15:54:33;;;;;;;;;;;;;;;20.59;59.16;101380.50;2227396;80;51528;-78
2022/10/04 15:57:39;;;;;;;;;;;;;;;20.57;59.21;101382.53;2226818;78;51367;-77
2022/10/04 16:00:42;;;;;;;;;;;;;;;20.59;59.10;101387.23;2227702;80;51579;-78
2022/10/04 16:03:55;;;;;;;;;;;;;;;20.58;59.12;101385.56;2206979;80;51363;-77
2022/10/04 16:06:58;;;;;;;;;;;;;;;20.54;59.17;101388.27;2227410;79;50468;-79
2022/10/04 16:10:01;;;;;;;;;;;;;;;20.54;59.15;101376.65;2243559;79;51598;-77
2022/10/04 16:13:12;;;;;;;;;;;;;;;20.48;59.25;101374.17;2243077;78;50870;-77
2022/10/04 16:16:24;;;;;;;;;;;;;;;20.51;59.17;101380.53;2235512;77;49639;-76